Arlington, Oregon
Current Conditions -  °F | °C
As of 12:53 PM on Saturday 20 Dec 2014 (Local Time) from KHRI Reporting Station
Light Rain Light Rain  
Wind Chill: 52°   Ceiling: 5000
Heat Index: 52°   Visibility: 10mi
Dew Point: 43°   Wind: 10mph
Humidity: 71%   Direction: 230°SW
Pressure: 29.72"   Gusts: NA
Location:  45.72°N, 120.2°W
Report Text: KHRI 202053Z AUTO 23009KT 10SM -RA BKN050 OVC070 11/06 A2972 RMK AO2 RAB18 SLP066 P0000 60000 T01110061 56017
Loading
Personal Weather Stations






























Interactive Weather Map New forecast layout! Learn more

10-Day Weather Forecast

Advertisements
Track Severe Weather on mobile